sensor_id;sensor_type;location;lat;lon;timestamp;P1;durP1;ratioP1;P2;durP2;ratioP2
19863;SDS011;10094;48.820;9.226;2022-07-03T00:04:02;2.58;;;2.20;;
19863;SDS011;10094;48.820;9.226;2022-07-03T00:10:45;3.50;;;2.67;;
19863;SDS011;10094;48.820;9.226;2022-07-03T00:17:28;2.95;;;2.60;;
19863;SDS011;10094;48.820;9.226;2022-07-03T00:24:14;3.58;;;2.92;;
19863;SDS011;10094;48.820;9.226;2022-07-03T00:31:03;3.47;;;2.70;;
19863;SDS011;10094;48.820;9.226;2022-07-03T00:37:46;3.42;;;2.83;;
19863;SDS011;10094;48.820;9.226;2022-07-03T00:44:30;4.88;;;2.90;;
19863;SDS011;10094;48.820;9.226;2022-07-03T00:51:15;3.40;;;2.67;;
19863;SDS011;10094;48.820;9.226;2022-07-03T00:58:10;4.90;;;3.63;;
19863;SDS011;10094;48.820;9.226;2022-07-03T01:12:07;4.07;;;2.90;;
19863;SDS011;10094;48.820;9.226;2022-07-03T01:26:12;3.50;;;3.20;;
19863;SDS011;10094;48.820;9.226;2022-07-03T01:32:58;8.23;;;4.47;;
19863;SDS011;10094;48.820;9.226;2022-07-03T01:39:48;4.47;;;3.42;;
19863;SDS011;10094;48.820;9.226;2022-07-03T01:46:37;3.85;;;3.45;;
19863;SDS011;10094;48.820;9.226;2022-07-03T01:53:23;5.15;;;4.55;;
19863;SDS011;10094;48.820;9.226;2022-07-03T02:00:08;7.55;;;4.72;;
19863;SDS011;10094;48.820;9.226;2022-07-03T02:07:08;9.57;;;3.97;;
19863;SDS011;10094;48.820;9.226;2022-07-03T02:14:10;5.35;;;3.88;;
19863;SDS011;10094;48.820;9.226;2022-07-03T02:27:56;6.43;;;4.03;;
19863;SDS011;10094;48.820;9.226;2022-07-03T02:34:45;4.25;;;3.30;;
19863;SDS011;10094;48.820;9.226;2022-07-03T02:41:42;3.85;;;3.40;;
19863;SDS011;10094;48.820;9.226;2022-07-03T02:48:32;5.50;;;3.42;;
19863;SDS011;10094;48.820;9.226;2022-07-03T03:09:39;7.18;;;3.88;;
19863;SDS011;10094;48.820;9.226;2022-07-03T03:16:27;4.53;;;3.00;;
19863;SDS011;10094;48.820;9.226;2022-07-03T03:23:14;3.58;;;3.17;;
19863;SDS011;10094;48.820;9.226;2022-07-03T03:30:17;6.05;;;3.28;;
19863;SDS011;10094;48.820;9.226;2022-07-03T03:37:00;3.63;;;2.90;;
19863;SDS011;10094;48.820;9.226;2022-07-03T03:43:42;4.70;;;3.25;;
19863;SDS011;10094;48.820;9.226;2022-07-03T03:50:25;3.70;;;3.40;;
19863;SDS011;10094;48.820;9.226;2022-07-03T03:57:24;3.15;;;2.80;;
19863;SDS011;10094;48.820;9.226;2022-07-03T04:04:07;5.05;;;3.13;;
19863;SDS011;10094;48.820;9.226;2022-07-03T04:10:50;3.30;;;3.00;;
19863;SDS011;10094;48.820;9.226;2022-07-03T04:17:32;5.50;;;2.88;;
19863;SDS011;10094;48.820;9.226;2022-07-03T04:24:24;3.83;;;2.70;;
19863;SDS011;10094;48.820;9.226;2022-07-03T04:31:09;3.58;;;3.00;;
19863;SDS011;10094;48.820;9.226;2022-07-03T04:37:52;3.15;;;2.80;;
19863;SDS011;10094;48.820;9.226;2022-07-03T04:44:34;3.20;;;2.80;;
19863;SDS011;10094;48.820;9.226;2022-07-03T04:51:17;5.00;;;2.92;;
19863;SDS011;10094;48.820;9.226;2022-07-03T04:58:02;3.40;;;2.80;;
19863;SDS011;10094;48.820;9.226;2022-07-03T05:04:49;3.03;;;2.50;;
19863;SDS011;10094;48.820;9.226;2022-07-03T05:11:35;3.30;;;2.17;;
19863;SDS011;10094;48.820;9.226;2022-07-03T05:18:18;4.45;;;2.50;;
19863;SDS011;10094;48.820;9.226;2022-07-03T05:25:03;3.47;;;2.15;;
19863;SDS011;10094;48.820;9.226;2022-07-03T05:31:45;2.53;;;2.00;;
19863;SDS011;10094;48.820;9.226;2022-07-03T05:38:28;4.38;;;1.85;;
19863;SDS011;10094;48.820;9.226;2022-07-03T05:45:30;3.17;;;1.90;;
19863;SDS011;10094;48.820;9.226;2022-07-03T05:52:13;2.00;;;1.80;;
19863;SDS011;10094;48.820;9.226;2022-07-03T05:58:56;3.35;;;1.85;;
19863;SDS011;10094;48.820;9.226;2022-07-03T06:05:38;1.70;;;1.52;;
19863;SDS011;10094;48.820;9.226;2022-07-03T06:12:21;4.15;;;1.90;;
19863;SDS011;10094;48.820;9.226;2022-07-03T06:19:03;2.55;;;1.90;;
19863;SDS011;10094;48.820;9.226;2022-07-03T06:25:46;2.72;;;2.22;;
19863;SDS011;10094;48.820;9.226;2022-07-03T06:32:28;2.53;;;1.73;;
19863;SDS011;10094;48.820;9.226;2022-07-03T06:39:11;2.30;;;2.10;;
19863;SDS011;10094;48.820;9.226;2022-07-03T06:45:53;2.63;;;2.20;;
19863;SDS011;10094;48.820;9.226;2022-07-03T06:52:36;3.92;;;1.80;;
19863;SDS011;10094;48.820;9.226;2022-07-03T07:06:26;3.10;;;2.10;;
19863;SDS011;10094;48.820;9.226;2022-07-03T07:13:09;4.03;;;1.80;;
19863;SDS011;10094;48.820;9.226;2022-07-03T07:19:51;3.10;;;1.75;;
19863;SDS011;10094;48.820;9.226;2022-07-03T07:26:33;3.15;;;1.90;;
19863;SDS011;10094;48.820;9.226;2022-07-03T07:33:16;3.17;;;1.90;;
19863;SDS011;10094;48.820;9.226;2022-07-03T07:39:58;3.72;;;1.63;;
19863;SDS011;10094;48.820;9.226;2022-07-03T07:46:41;2.72;;;1.90;;
19863;SDS011;10094;48.820;9.226;2022-07-03T07:53:23;2.13;;;1.92;;
19863;SDS011;10094;48.820;9.226;2022-07-03T08:00:07;1.80;;;1.65;;
19863;SDS011;10094;48.820;9.226;2022-07-03T08:06:57;3.13;;;1.67;;
19863;SDS011;10094;48.820;9.226;2022-07-03T08:13:39;1.58;;;1.48;;
19863;SDS011;10094;48.820;9.226;2022-07-03T08:20:22;2.67;;;1.67;;
19863;SDS011;10094;48.820;9.226;2022-07-03T08:27:04;1.60;;;1.40;;
19863;SDS011;10094;48.820;9.226;2022-07-03T08:33:47;1.70;;;1.42;;
19863;SDS011;10094;48.820;9.226;2022-07-03T08:40:30;1.92;;;1.42;;
19863;SDS011;10094;48.820;9.226;2022-07-03T08:47:13;3.63;;;1.45;;
19863;SDS011;10094;48.820;9.226;2022-07-03T08:53:59;1.30;;;1.20;;
19863;SDS011;10094;48.820;9.226;2022-07-03T09:07:52;2.20;;;1.40;;
19863;SDS011;10094;48.820;9.226;2022-07-03T09:14:35;0.90;;;0.90;;
19863;SDS011;10094;48.820;9.226;2022-07-03T09:21:18;4.53;;;1.55;;
19863;SDS011;10094;48.820;9.226;2022-07-03T09:28:02;2.00;;;1.08;;
19863;SDS011;10094;48.820;9.226;2022-07-03T09:34:45;1.23;;;1.13;;
19863;SDS011;10094;48.820;9.226;2022-07-03T09:41:27;1.83;;;1.73;;
19863;SDS011;10094;48.820;9.226;2022-07-03T09:55:16;2.05;;;1.10;;
19863;SDS011;10094;48.820;9.226;2022-07-03T10:02:00;1.73;;;1.30;;
19863;SDS011;10094;48.820;9.226;2022-07-03T10:08:50;1.20;;;1.10;;
19863;SDS011;10094;48.820;9.226;2022-07-03T10:15:33;1.00;;;1.00;;
19863;SDS011;10094;48.820;9.226;2022-07-03T10:22:21;1.52;;;1.35;;
19863;SDS011;10094;48.820;9.226;2022-07-03T10:29:04;1.33;;;1.00;;
19863;SDS011;10094;48.820;9.226;2022-07-03T10:35:53;2.83;;;1.20;;
19863;SDS011;10094;48.820;9.226;2022-07-03T10:42:39;2.38;;;2.10;;
19863;SDS011;10094;48.820;9.226;2022-07-03T10:49:59;2.80;;;1.23;;
19863;SDS011;10094;48.820;9.226;2022-07-03T11:03:52;1.65;;;1.13;;
19863;SDS011;10094;48.820;9.226;2022-07-03T11:10:43;1.20;;;1.10;;
19863;SDS011;10094;48.820;9.226;2022-07-03T11:17:26;3.25;;;1.40;;
19863;SDS011;10094;48.820;9.226;2022-07-03T11:37:52;1.10;;;1.00;;
19863;SDS011;10094;48.820;9.226;2022-07-03T11:44:37;1.48;;;1.13;;
19863;SDS011;10094;48.820;9.226;2022-07-03T11:51:20;1.45;;;1.23;;
19863;SDS011;10094;48.820;9.226;2022-07-03T11:58:04;3.65;;;1.70;;
19863;SDS011;10094;48.820;9.226;2022-07-03T12:04:46;2.47;;;1.60;;
19863;SDS011;10094;48.820;9.226;2022-07-03T12:11:29;2.17;;;1.98;;
19863;SDS011;10094;48.820;9.226;2022-07-03T12:18:11;2.30;;;1.60;;
19863;SDS011;10094;48.820;9.226;2022-07-03T12:24:57;2.00;;;1.70;;
19863;SDS011;10094;48.820;9.226;2022-07-03T12:31:48;1.35;;;1.00;;
19863;SDS011;10094;48.820;9.226;2022-07-03T12:38:32;1.30;;;1.20;;
19863;SDS011;10094;48.820;9.226;2022-07-03T12:45:16;1.13;;;1.05;;
19863;SDS011;10094;48.820;9.226;2022-07-03T12:52:00;3.25;;;1.98;;
19863;SDS011;10094;48.820;9.226;2022-07-03T12:58:43;3.08;;;1.30;;
19863;SDS011;10094;48.820;9.226;2022-07-03T13:05:44;3.65;;;1.48;;
19863;SDS011;10094;48.820;9.226;2022-07-03T13:12:26;1.70;;;1.30;;
19863;SDS011;10094;48.820;9.226;2022-07-03T13:19:10;1.80;;;1.40;;
19863;SDS011;10094;48.820;9.226;2022-07-03T13:25:54;2.53;;;1.20;;
19863;SDS011;10094;48.820;9.226;2022-07-03T13:32:37;2.20;;;1.35;;
19863;SDS011;10094;48.820;9.226;2022-07-03T13:39:20;2.20;;;1.17;;
19863;SDS011;10094;48.820;9.226;2022-07-03T13:46:02;3.20;;;1.30;;
19863;SDS011;10094;48.820;9.226;2022-07-03T13:52:45;1.33;;;1.08;;
19863;SDS011;10094;48.820;9.226;2022-07-03T13:59:31;1.52;;;1.35;;
19863;SDS011;10094;48.820;9.226;2022-07-03T14:06:14;1.10;;;1.00;;
19863;SDS011;10094;48.820;9.226;2022-07-03T14:12:56;1.58;;;1.15;;
19863;SDS011;10094;48.820;9.226;2022-07-03T14:19:39;1.20;;;1.10;;
19863;SDS011;10094;48.820;9.226;2022-07-03T14:26:21;2.55;;;1.23;;
19863;SDS011;10094;48.820;9.226;2022-07-03T14:33:24;1.95;;;1.40;;
19863;SDS011;10094;48.820;9.226;2022-07-03T14:40:06;2.50;;;1.20;;
19863;SDS011;10094;48.820;9.226;2022-07-03T14:46:52;3.25;;;1.70;;
19863;SDS011;10094;48.820;9.226;2022-07-03T14:53:35;1.88;;;1.25;;
19863;SDS011;10094;48.820;9.226;2022-07-03T15:00:18;2.03;;;1.60;;
19863;SDS011;10094;48.820;9.226;2022-07-03T15:07:01;1.70;;;1.60;;
19863;SDS011;10094;48.820;9.226;2022-07-03T15:13:46;2.80;;;1.50;;
19863;SDS011;10094;48.820;9.226;2022-07-03T15:20:33;1.27;;;1.17;;
19863;SDS011;10094;48.820;9.226;2022-07-03T15:27:20;3.20;;;1.75;;
19863;SDS011;10094;48.820;9.226;2022-07-03T15:34:04;2.60;;;1.17;;
19863;SDS011;10094;48.820;9.226;2022-07-03T15:40:52;2.85;;;1.17;;
19863;SDS011;10094;48.820;9.226;2022-07-03T15:47:46;2.53;;;1.52;;
19863;SDS011;10094;48.820;9.226;2022-07-03T16:01:49;2.28;;;1.35;;
19863;SDS011;10094;48.820;9.226;2022-07-03T16:08:54;2.67;;;1.10;;
19863;SDS011;10094;48.820;9.226;2022-07-03T16:15:37;1.40;;;1.27;;
19863;SDS011;10094;48.820;9.226;2022-07-03T16:22:24;1.65;;;1.45;;
19863;SDS011;10094;48.820;9.226;2022-07-03T16:29:09;4.25;;;1.55;;
19863;SDS011;10094;48.820;9.226;2022-07-03T16:35:52;2.55;;;1.83;;
19863;SDS011;10094;48.820;9.226;2022-07-03T16:42:36;4.72;;;3.15;;
19863;SDS011;10094;48.820;9.226;2022-07-03T16:49:24;2.65;;;2.40;;
19863;SDS011;10094;48.820;9.226;2022-07-03T16:56:13;2.60;;;2.30;;
19863;SDS011;10094;48.820;9.226;2022-07-03T17:02:58;1.83;;;1.65;;
19863;SDS011;10094;48.820;9.226;2022-07-03T17:09:40;3.53;;;1.48;;
19863;SDS011;10094;48.820;9.226;2022-07-03T17:16:25;3.55;;;3.25;;
19863;SDS011;10094;48.820;9.226;2022-07-03T17:23:10;4.43;;;2.70;;
19863;SDS011;10094;48.820;9.226;2022-07-03T17:30:06;2.75;;;1.83;;
19863;SDS011;10094;48.820;9.226;2022-07-03T17:36:50;3.35;;;2.08;;
19863;SDS011;10094;48.820;9.226;2022-07-03T17:43:33;2.55;;;1.73;;
19863;SDS011;10094;48.820;9.226;2022-07-03T17:50:20;5.75;;;1.77;;
19863;SDS011;10094;48.820;9.226;2022-07-03T17:57:06;2.08;;;1.55;;
19863;SDS011;10094;48.820;9.226;2022-07-03T18:04:08;2.92;;;1.35;;
19863;SDS011;10094;48.820;9.226;2022-07-03T18:10:57;4.05;;;1.73;;
19863;SDS011;10094;48.820;9.226;2022-07-03T18:17:46;1.92;;;1.40;;
19863;SDS011;10094;48.820;9.226;2022-07-03T18:24:37;2.15;;;1.50;;
19863;SDS011;10094;48.820;9.226;2022-07-03T18:31:22;1.48;;;1.38;;
19863;SDS011;10094;48.820;9.226;2022-07-03T18:38:07;2.67;;;2.00;;
19863;SDS011;10094;48.820;9.226;2022-07-03T18:44:52;3.00;;;1.50;;
19863;SDS011;10094;48.820;9.226;2022-07-03T19:06:44;2.25;;;1.48;;
19863;SDS011;10094;48.820;9.226;2022-07-03T19:13:30;1.48;;;1.30;;
19863;SDS011;10094;48.820;9.226;2022-07-03T19:20:16;3.05;;;1.58;;
19863;SDS011;10094;48.820;9.226;2022-07-03T19:26:59;5.40;;;1.92;;
19863;SDS011;10094;48.820;9.226;2022-07-03T19:33:43;2.13;;;1.65;;
19863;SDS011;10094;48.820;9.226;2022-07-03T19:40:25;4.70;;;3.17;;
19863;SDS011;10094;48.820;9.226;2022-07-03T19:47:09;4.22;;;2.40;;
19863;SDS011;10094;48.820;9.226;2022-07-03T19:54:08;3.70;;;1.92;;
19863;SDS011;10094;48.820;9.226;2022-07-03T20:00:53;2.30;;;1.50;;
19863;SDS011;10094;48.820;9.226;2022-07-03T20:07:40;3.15;;;1.88;;
19863;SDS011;10094;48.820;9.226;2022-07-03T20:14:22;1.90;;;1.63;;
19863;SDS011;10094;48.820;9.226;2022-07-03T20:21:06;3.00;;;1.80;;
19863;SDS011;10094;48.820;9.226;2022-07-03T20:27:49;3.00;;;2.40;;
19863;SDS011;10094;48.820;9.226;2022-07-03T20:34:31;2.92;;;2.50;;
19863;SDS011;10094;48.820;9.226;2022-07-03T20:41:14;3.90;;;2.40;;
19863;SDS011;10094;48.820;9.226;2022-07-03T20:47:57;3.15;;;2.05;;
19863;SDS011;10094;48.820;9.226;2022-07-03T20:54:40;4.22;;;3.58;;
19863;SDS011;10094;48.820;9.226;2022-07-03T21:01:22;3.22;;;2.58;;
19863;SDS011;10094;48.820;9.226;2022-07-03T21:08:04;3.35;;;2.80;;
19863;SDS011;10094;48.820;9.226;2022-07-03T21:14:47;4.82;;;2.55;;
19863;SDS011;10094;48.820;9.226;2022-07-03T21:21:30;4.78;;;3.67;;
19863;SDS011;10094;48.820;9.226;2022-07-03T21:28:13;6.13;;;2.50;;
19863;SDS011;10094;48.820;9.226;2022-07-03T21:34:55;6.00;;;2.53;;
19863;SDS011;10094;48.820;9.226;2022-07-03T21:41:38;4.15;;;3.13;;
19863;SDS011;10094;48.820;9.226;2022-07-03T21:48:20;5.97;;;2.75;;
19863;SDS011;10094;48.820;9.226;2022-07-03T21:55:04;4.68;;;2.80;;
19863;SDS011;10094;48.820;9.226;2022-07-03T22:01:47;3.63;;;2.53;;
19863;SDS011;10094;48.820;9.226;2022-07-03T22:08:30;4.75;;;2.50;;
19863;SDS011;10094;48.820;9.226;2022-07-03T22:15:13;4.22;;;3.17;;
19863;SDS011;10094;48.820;9.226;2022-07-03T22:21:56;4.28;;;2.78;;
19863;SDS011;10094;48.820;9.226;2022-07-03T22:28:39;5.47;;;2.53;;
19863;SDS011;10094;48.820;9.226;2022-07-03T22:35:21;3.97;;;2.90;;
19863;SDS011;10094;48.820;9.226;2022-07-03T22:42:04;3.80;;;2.78;;
19863;SDS011;10094;48.820;9.226;2022-07-03T22:48:47;4.40;;;3.10;;
19863;SDS011;10094;48.820;9.226;2022-07-03T22:55:29;5.40;;;2.80;;
19863;SDS011;10094;48.820;9.226;2022-07-03T23:02:12;5.43;;;2.95;;
19863;SDS011;10094;48.820;9.226;2022-07-03T23:08:55;5.22;;;2.88;;
19863;SDS011;10094;48.820;9.226;2022-07-03T23:15:38;2.85;;;2.40;;
19863;SDS011;10094;48.820;9.226;2022-07-03T23:22:20;2.60;;;2.00;;
19863;SDS011;10094;48.820;9.226;2022-07-03T23:29:02;4.35;;;2.30;;
19863;SDS011;10094;48.820;9.226;2022-07-03T23:35:45;2.38;;;1.75;;
19863;SDS011;10094;48.820;9.226;2022-07-03T23:42:43;5.60;;;1.85;;
19863;SDS011;10094;48.820;9.226;2022-07-03T23:49:26;3.22;;;1.70;;
19863;SDS011;10094;48.820;9.226;2022-07-03T23:56:27;2.13;;;1.55;;
